This is the latest recevied weather packets stored in our database for station/object KB4RFE. If no packets are shown the sender has not sent any weather packets the latest 10 day(s).
| Time | Temp. | Humidity | Pressure | Rain* | Wind** | Luminosity | Snow |
|---|---|---|---|---|---|---|---|
| 1788193149 | 30° C | 79% | 1023.7 hPa | 0 mm | - | 203 W/m² | - |
| 1788192846 | 30.56° C | 78% | 1023.9 hPa | 0 mm | - | 204 W/m² | - |
| 1788192541 | 30° C | 77% | 1023.7 hPa | 0 mm | - | 207 W/m² | - |
| 1788192235 | 30.56° C | 78% | 1023.5 hPa | 0 mm | - | 211 W/m² | - |
| 1788191931 | 30.56° C | 76% | 1023.7 hPa | 0 mm | - | 220 W/m² | - |
| 1788191630 | 30.56° C | 76% | 1023.5 hPa | 0 mm | - | 224 W/m² | - |
| 1788191326 | 30.56° C | 77% | 1023.5 hPa | 0 mm | - | 241 W/m² | - |
| 1788191023 | 30.56° C | 75% | 1023.5 hPa | 0 mm | - | 255 W/m² | - |
| 1788190721 | 31.11° C | 75% | 1023.4 hPa | 0 mm | - | 260 W/m² | - |
| 1788190417 | 31.67° C | 72% | 1023.5 hPa | 0 mm | - | 287 W/m² | - |
| 1788190113 | 31.67° C | 71% | 1023.2 hPa | 0 mm | - | 316 W/m² | - |
| 1788189808 | 32.22° C | 69% | 1023.3 hPa | 0 mm | - | 324 W/m² | - |
| 1788189511 | 32.78° C | 67% | 1023.2 hPa | 0 mm | - | 403 W/m² | - |
| 1788189202 | 33.33° C | 67% | 1023.1 hPa | 0 mm | - | 419 W/m² | - |
| 1788188898 | 33.89° C | 68% | 1023 hPa | 0 mm | - | 412 W/m² | - |
| 1788188593 | 33.89° C | 66% | 1023 hPa | 0 mm | - | 467 W/m² | - |
| 1788188292 | 33.33° C | 69% | 1023.1 hPa | 0 mm | - | 770 W/m² | - |
| 1788187989 | 33.33° C | 70% | 1023 hPa | 0 mm | - | 694 W/m² | - |
| 1788187684 | 32.78° C | 70% | 1022.8 hPa | 0 mm | - | 531 W/m² | - |
| 1788187381 | 32.78° C | 70% | 1022.9 hPa | 0 mm | - | 555 W/m² | - |
| 1788187079 | 32.78° C | 70% | 1022.5 hPa | 0 mm | - | 328 W/m² | - |
| 1788186775 | 31.67° C | 72% | 1022.9 hPa | 0 mm | - | 621 W/m² | - |
| 1788186470 | 31.11° C | 74% | 1022.8 hPa | 0 mm | - | 634 W/m² | - |
| 1788186166 | 30° C | 75% | 1022.8 hPa | 0 mm | - | 655 W/m² | - |
| 1788185859 | 30° C | 77% | 1022.5 hPa | 0 mm | - | 538 W/m² | - |
* Rain latest hour (hover to see other rain measurements)
** Current wind speed in m/s (hover to see current wind gust speed)